Time;durP1;ratioP1;P1;durP2;ratioP2;P2;SDS_P1;SDS_P2;PMS_P1;PMS_P2;Temp;Humidity;BMP_temperature;BMP_pressure;BME280_temperature;BME280_humidity;BME280_pressure;Samples;Min_cycle;Max_cycle;Signal;HPM_P1;HPM_P2
2023/04/09 00:00:50;;;;;;;;;;;20.60;45.70;;;;;;1564424;75;680;-61
2023/04/09 00:02:52;;;;;;;;;;;20.60;45.70;;;;;;1548343;74;713;-59
2023/04/09 00:04:54;;;;;;;;;;;20.50;45.80;;;;;;1554269;75;1123;-59
2023/04/09 00:06:56;;;;;;;;;;;20.50;45.80;;;;;;1564323;75;729;-58
2023/04/09 00:08:57;;;;;;;;;;;20.50;45.80;;;;;;1565751;75;1553;-59
2023/04/09 00:10:59;;;;;;;;;;;20.50;45.90;;;;;;1559570;75;732;-59
2023/04/09 00:13:01;;;;;;;;;;;20.50;45.80;;;;;;1567447;74;1918;-59
2023/04/09 00:15:03;;;;;;;;;;;20.60;45.90;;;;;;1569794;75;1149;-59
2023/04/09 00:17:05;;;;;;;;;;;20.60;46.40;;;;;;1543357;75;734;-60
2023/04/09 00:19:07;;;;;;;;;;;20.60;46.50;;;;;;1538838;75;779;-59
2023/04/09 00:21:09;;;;;;;;;;;20.60;46.50;;;;;;1536719;75;707;-58
2023/04/09 00:23:11;;;;;;;;;;;20.60;46.40;;;;;;1512756;77;1558;-59
2023/04/09 00:25:13;;;;;;;;;;;20.60;46.30;;;;;;1493638;79;722;-58
2023/04/09 00:27:15;;;;;;;;;;;20.60;46.30;;;;;;1499508;79;1136;-58
2023/04/09 00:29:17;;;;;;;;;;;20.70;46.50;;;;;;1508032;79;791;-59
2023/04/09 00:31:18;;;;;;;;;;;20.70;46.50;;;;;;1561292;75;810;-60
2023/04/09 00:33:20;;;;;;;;;;;20.70;46.50;;;;;;1551493;74;1959;-60
2023/04/09 00:35:22;;;;;;;;;;;20.70;46.50;;;;;;1551539;75;715;-60
2023/04/09 00:37:24;;;;;;;;;;;20.70;46.50;;;;;;1553203;75;1516;-60
2023/04/09 00:39:26;;;;;;;;;;;20.70;46.50;;;;;;1553014;75;732;-59
2023/04/09 00:41:28;;;;;;;;;;;20.70;46.50;;;;;;1548140;75;579;-59
2023/04/09 00:43:30;;;;;;;;;;;20.70;46.50;;;;;;1550034;75;1115;-61
2023/04/09 00:45:31;;;;;;;;;;;20.70;46.40;;;;;;1559676;75;821;-59
2023/04/09 00:47:34;;;;;;;;;;;20.70;46.30;;;;;;1559911;75;685;-60
2023/04/09 00:49:36;;;;;;;;;;;20.70;46.30;;;;;;1566553;75;601;-62
2023/04/09 00:51:38;;;;;;;;;;;20.70;46.30;;;;;;1558352;74;1516;-59
2023/04/09 00:53:40;;;;;;;;;;;20.70;46.30;;;;;;1522695;76;1937;-58
2023/04/09 00:55:42;;;;;;;;;;;20.70;46.50;;;;;;1481669;78;740;-59
2023/04/09 00:57:44;;;;;;;;;;;20.70;46.40;;;;;;1510808;78;791;-59
2023/04/09 00:59:46;;;;;;;;;;;20.60;46.30;;;;;;1565339;75;714;-59
2023/04/09 01:01:47;;;;;;;;;;;20.70;46.40;;;;;;1556737;75;671;-59
2023/04/09 01:03:49;;;;;;;;;;;20.60;46.30;;;;;;1557163;75;1148;-59
2023/04/09 01:05:56;;;;;;;;;;;20.70;46.30;;;;;;1552380;75;1607;-60
2023/04/09 01:08:05;;;;;;;;;;;20.70;46.20;;;;;;1555395;75;1864;-59
2023/04/09 01:10:15;;;;;;;;;;;20.70;46.20;;;;;;1559754;75;1814;-58
2023/04/09 01:12:27;;;;;;;;;;;20.70;46.10;;;;;;1558274;75;663;-58
2023/04/09 01:14:34;;;;;;;;;;;20.80;46.00;;;;;;1557404;75;1942;-59
2023/04/09 01:16:36;;;;;;;;;;;20.70;46.30;;;;;;1560074;74;740;-58
2023/04/09 01:18:40;;;;;;;;;;;20.70;46.20;;;;;;1548789;74;1298;-59
2023/04/09 01:20:49;;;;;;;;;;;20.70;46.40;;;;;;1574668;75;856;-59
2023/04/09 01:23:09;;;;;;;;;;;20.60;46.30;;;;;;1536611;75;697;-58
2023/04/09 01:25:29;;;;;;;;;;;20.60;46.20;;;;;;1556084;75;1159;-59
2023/04/09 01:27:33;;;;;;;;;;;20.70;46.30;;;;;;1548264;75;1011;-59
2023/04/09 01:29:39;;;;;;;;;;;20.70;46.20;;;;;;1559637;75;2052;-60
2023/04/09 01:31:41;;;;;;;;;;;20.70;46.30;;;;;;1516095;76;1024;-58
2023/04/09 01:33:44;;;;;;;;;;;20.60;46.20;;;;;;1501431;77;1925;-59
2023/04/09 01:35:46;;;;;;;;;;;20.70;46.40;;;;;;1512712;77;721;-58
2023/04/09 01:37:48;;;;;;;;;;;20.60;46.20;;;;;;1505957;78;750;-58
2023/04/09 01:39:50;;;;;;;;;;;20.60;46.20;;;;;;1512999;78;791;-63
2023/04/09 01:41:51;;;;;;;;;;;20.80;46.60;;;;;;1510268;78;707;-59
2023/04/09 01:43:53;;;;;;;;;;;20.70;46.40;;;;;;1507417;78;1156;-58
2023/04/09 01:45:55;;;;;;;;;;;20.60;46.20;;;;;;1522655;78;776;-58
2023/04/09 01:47:57;;;;;;;;;;;20.70;46.10;;;;;;1514526;77;1651;-60
2023/04/09 01:49:59;;;;;;;;;;;20.70;46.00;;;;;;1524285;78;773;-59
2023/04/09 01:52:01;;;;;;;;;;;20.70;45.90;;;;;;1521660;78;780;-60
2023/04/09 01:54:03;;;;;;;;;;;20.70;45.80;;;;;;1513261;77;1945;-60
2023/04/09 01:56:05;;;;;;;;;;;20.70;45.80;;;;;;1519200;78;756;-60
2023/04/09 01:58:07;;;;;;;;;;;20.70;45.80;;;;;;1522653;77;761;-60
2023/04/09 02:00:09;;;;;;;;;;;20.70;45.70;;;;;;1507378;77;766;-59
2023/04/09 02:02:12;;;;;;;;;;;20.70;45.70;;;;;;1510962;78;1525;-60
2023/04/09 02:04:21;;;;;;;;;;;20.70;45.70;;;;;;1511826;77;1115;-60
2023/04/09 02:06:40;;;;;;;;;;;20.70;45.70;;;;;;1520042;77;963;-59
2023/04/09 02:08:44;;;;;;;;;;;20.70;45.70;;;;;;1513670;78;625;-59
2023/04/09 02:10:52;;;;;;;;;;;20.70;45.70;;;;;;1538686;76;779;-60
2023/04/09 02:12:51;;;;;;;;;;;20.70;45.70;;;;;;1507584;78;1715;-59
2023/04/09 02:14:53;;;;;;;;;;;20.70;45.70;;;;;;1506997;78;1958;-60
2023/04/09 02:16:55;;;;;;;;;;;20.70;45.70;;;;;;1510092;77;751;-58
2023/04/09 02:19:00;;;;;;;;;;;20.70;45.70;;;;;;1540240;75;744;-59
2023/04/09 02:21:01;;;;;;;;;;;20.70;45.70;;;;;;1553267;75;1776;-59
2023/04/09 02:23:03;;;;;;;;;;;20.70;45.70;;;;;;1562806;75;650;-59
2023/04/09 02:25:05;;;;;;;;;;;20.70;45.70;;;;;;1547366;74;1096;-59
2023/04/09 02:27:07;;;;;;;;;;;20.70;45.70;;;;;;1521113;76;1072;-60
2023/04/09 02:29:09;;;;;;;;;;;20.70;46.50;;;;;;1548084;76;1565;-60
2023/04/09 02:31:11;;;;;;;;;;;20.60;46.30;;;;;;1540715;76;765;-59
2023/04/09 02:33:13;;;;;;;;;;;20.60;46.40;;;;;;1534417;75;1188;-60
2023/04/09 02:35:15;;;;;;;;;;;20.50;46.40;;;;;;1526154;75;1909;-60
2023/04/09 02:37:17;;;;;;;;;;;20.60;46.20;;;;;;1545923;75;541;-60
2023/04/09 02:39:19;;;;;;;;;;;20.60;46.00;;;;;;1549269;75;770;-60
2023/04/09 02:41:21;;;;;;;;;;;20.60;46.00;;;;;;1537792;76;809;-60
2023/04/09 02:43:23;;;;;;;;;;;20.60;46.00;;;;;;1546806;74;1558;-61
2023/04/09 02:45:24;;;;;;;;;;;20.70;46.10;;;;;;1539748;76;715;-60
2023/04/09 02:47:26;;;;;;;;;;;20.70;46.00;;;;;;1548347;76;760;-60
2023/04/09 02:49:28;;;;;;;;;;;20.70;46.00;;;;;;1531740;76;719;-59
2023/04/09 02:51:30;;;;;;;;;;;20.70;46.00;;;;;;1540148;76;790;-60
2023/04/09 02:53:32;;;;;;;;;;;20.70;46.10;;;;;;1538359;76;1139;-59
2023/04/09 02:55:34;;;;;;;;;;;20.60;46.00;;;;;;1539935;75;1941;-61
2023/04/09 02:57:36;;;;;;;;;;;20.70;46.10;;;;;;1538705;75;1559;-59
2023/04/09 02:59:39;;;;;;;;;;;20.60;46.20;;;;;;1536575;75;663;-59
2023/04/09 03:01:41;;;;;;;;;;;20.60;46.50;;;;;;1536569;76;764;-60
2023/04/09 03:03:43;;;;;;;;;;;20.50;46.60;;;;;;1539353;76;1114;-59
2023/04/09 03:05:45;;;;;;;;;;;20.60;46.40;;;;;;1546386;75;670;-58
2023/04/09 03:07:47;;;;;;;;;;;20.60;46.50;;;;;;1546261;75;664;-58
2023/04/09 03:09:48;;;;;;;;;;;20.60;46.50;;;;;;1539778;76;801;-58
2023/04/09 03:11:50;;;;;;;;;;;20.60;46.40;;;;;;1541243;76;1597;-59
2023/04/09 03:13:52;;;;;;;;;;;20.60;46.40;;;;;;1545943;76;1936;-60
2023/04/09 03:15:54;;;;;;;;;;;20.70;46.40;;;;;;1548106;76;698;-59
2023/04/09 03:17:56;;;;;;;;;;;20.70;46.40;;;;;;1544265;76;737;-62
2023/04/09 03:19:58;;;;;;;;;;;20.70;46.30;;;;;;1542692;75;581;-59
2023/04/09 03:22:00;;;;;;;;;;;20.70;46.20;;;;;;1539345;76;728;-60
2023/04/09 03:24:02;;;;;;;;;;;20.70;46.20;;;;;;1537277;75;1149;-58
2023/04/09 03:26:05;;;;;;;;;;;20.70;46.20;;;;;;1540927;75;1576;-59
2023/04/09 03:28:06;;;;;;;;;;;20.70;46.30;;;;;;1552172;75;1109;-58
2023/04/09 03:30:09;;;;;;;;;;;20.60;46.20;;;;;;1556737;75;980;-58
2023/04/09 03:32:10;;;;;;;;;;;20.70;46.30;;;;;;1558219;75;774;-59
2023/04/09 03:34:12;;;;;;;;;;;20.60;46.20;;;;;;1565611;75;1939;-60
2023/04/09 03:36:14;;;;;;;;;;;20.60;46.20;;;;;;1569942;75;801;-60
2023/04/09 03:38:16;;;;;;;;;;;20.60;46.10;;;;;;1559358;75;730;-59
2023/04/09 03:40:18;;;;;;;;;;;20.70;46.20;;;;;;1560596;74;1422;-58
2023/04/09 03:42:20;;;;;;;;;;;20.60;46.00;;;;;;1553405;75;778;-60
2023/04/09 03:44:22;;;;;;;;;;;20.70;46.10;;;;;;1551181;75;1146;-58
2023/04/09 03:46:24;;;;;;;;;;;20.70;46.10;;;;;;1552401;75;742;-58
2023/04/09 03:48:26;;;;;;;;;;;20.70;46.00;;;;;;1563634;75;812;-57
2023/04/09 03:50:28;;;;;;;;;;;20.70;46.00;;;;;;1528549;76;633;-58
2023/04/09 03:52:29;;;;;;;;;;;20.70;46.00;;;;;;1494871;78;687;-58
2023/04/09 03:54:31;;;;;;;;;;;20.70;46.00;;;;;;1484143;78;1945;-58
2023/04/09 03:56:33;;;;;;;;;;;20.70;46.00;;;;;;1519254;77;724;-59
2023/04/09 03:58:35;;;;;;;;;;;20.70;46.00;;;;;;1518642;77;710;-59
2023/04/09 04:00:37;;;;;;;;;;;20.70;46.10;;;;;;1522570;78;679;-60
2023/04/09 04:02:39;;;;;;;;;;;20.60;46.10;;;;;;1516876;77;713;-59
2023/04/09 04:04:41;;;;;;;;;;;20.70;46.30;;;;;;1506487;78;1136;-58
2023/04/09 04:06:43;;;;;;;;;;;20.60;46.20;;;;;;1505920;78;697;-59
2023/04/09 04:08:45;;;;;;;;;;;20.60;46.10;;;;;;1506949;78;1603;-58
2023/04/09 04:10:46;;;;;;;;;;;20.60;46.00;;;;;;1514920;78;635;-59
2023/04/09 04:12:48;;;;;;;;;;;20.60;45.90;;;;;;1507277;78;729;-58
2023/04/09 04:14:50;;;;;;;;;;;20.60;46.00;;;;;;1507731;78;1950;-59
2023/04/09 04:16:52;;;;;;;;;;;20.70;46.00;;;;;;1524152;78;797;-58
2023/04/09 04:18:54;;;;;;;;;;;20.60;46.50;;;;;;1506787;78;766;-59
2023/04/09 04:20:56;;;;;;;;;;;20.60;46.10;;;;;;1515319;78;708;-58
2023/04/09 04:22:58;;;;;;;;;;;20.60;46.00;;;;;;1523686;77;1670;-59
2023/04/09 04:24:59;;;;;;;;;;;20.60;46.10;;;;;;1514329;78;1088;-59
2023/04/09 04:27:01;;;;;;;;;;;20.60;46.10;;;;;;1511085;78;771;-58
2023/04/09 04:29:03;;;;;;;;;;;20.60;46.00;;;;;;1523014;77;988;-60
2023/04/09 04:31:09;;;;;;;;;;;20.60;46.30;;;;;;1531861;77;770;-59
2023/04/09 04:33:11;;;;;;;;;;;20.60;46.30;;;;;;1533612;77;672;-59
2023/04/09 04:35:13;;;;;;;;;;;20.60;46.10;;;;;;1501183;77;1936;-59
2023/04/09 04:37:15;;;;;;;;;;;20.80;46.20;;;;;;1513091;77;736;-59
2023/04/09 04:39:17;;;;;;;;;;;20.70;46.10;;;;;;1503229;77;743;-59
2023/04/09 04:41:19;;;;;;;;;;;20.70;46.20;;;;;;1526605;77;748;-58
2023/04/09 04:43:21;;;;;;;;;;;20.70;46.10;;;;;;1533363;77;1119;-59
2023/04/09 04:45:23;;;;;;;;;;;20.70;46.10;;;;;;1522844;77;720;-59
2023/04/09 04:47:25;;;;;;;;;;;20.70;46.10;;;;;;1531445;77;906;-58
2023/04/09 04:49:27;;;;;;;;;;;20.70;46.20;;;;;;1532913;77;1494;-60
2023/04/09 04:51:31;;;;;;;;;;;20.60;46.10;;;;;;1516353;77;784;-61
2023/04/09 04:53:33;;;;;;;;;;;20.70;46.20;;;;;;1554452;75;1151;-59
2023/04/09 04:55:35;;;;;;;;;;;20.70;46.20;;;;;;1528009;77;1954;-59
2023/04/09 04:57:37;;;;;;;;;;;20.70;46.10;;;;;;1518342;77;792;-59
2023/04/09 04:59:39;;;;;;;;;;;20.70;46.10;;;;;;1513261;77;789;-59
2023/04/09 05:01:41;;;;;;;;;;;20.70;46.10;;;;;;1546728;75;727;-61
2023/04/09 05:03:43;;;;;;;;;;;20.70;46.10;;;;;;1509648;77;1570;-59
2023/04/09 05:05:45;;;;;;;;;;;20.70;46.00;;;;;;1518072;77;712;-58
2023/04/09 05:07:47;;;;;;;;;;;20.70;46.00;;;;;;1529990;77;729;-58
2023/04/09 05:09:49;;;;;;;;;;;20.70;46.00;;;;;;1512150;77;690;-59
2023/04/09 05:11:51;;;;;;;;;;;20.70;46.00;;;;;;1513146;77;752;-59
2023/04/09 05:13:53;;;;;;;;;;;20.70;46.00;;;;;;1518949;77;1203;-58
2023/04/09 05:15:55;;;;;;;;;;;20.70;46.00;;;;;;1518523;77;1947;-59
2023/04/09 05:17:57;;;;;;;;;;;20.70;46.00;;;;;;1533064;77;1365;-58
2023/04/09 05:19:58;;;;;;;;;;;20.70;45.90;;;;;;1531539;77;610;-58
2023/04/09 05:22:00;;;;;;;;;;;20.70;46.00;;;;;;1528857;77;736;-59
2023/04/09 05:24:02;;;;;;;;;;;20.70;45.90;;;;;;1527629;77;1180;-58
2023/04/09 05:26:04;;;;;;;;;;;20.70;46.00;;;;;;1509172;77;740;-58
2023/04/09 05:28:06;;;;;;;;;;;20.70;45.90;;;;;;1528843;77;793;-60
2023/04/09 05:30:09;;;;;;;;;;;20.70;45.90;;;;;;1523028;77;1455;-60
2023/04/09 05:32:11;;;;;;;;;;;20.70;45.90;;;;;;1514639;77;1563;-58
2023/04/09 05:34:12;;;;;;;;;;;20.70;45.90;;;;;;1507885;77;1180;-60
2023/04/09 05:36:15;;;;;;;;;;;20.70;46.00;;;;;;1520768;77;1942;-59
2023/04/09 05:38:17;;;;;;;;;;;20.60;46.00;;;;;;1534282;77;745;-58
2023/04/09 05:40:19;;;;;;;;;;;20.70;46.60;;;;;;1531790;77;721;-58
2023/04/09 05:42:21;;;;;;;;;;;20.60;46.50;;;;;;1528992;77;714;-58
2023/04/09 05:44:23;;;;;;;;;;;20.60;46.60;;;;;;1524236;77;1080;-58
2023/04/09 05:46:26;;;;;;;;;;;20.60;46.70;;;;;;1529174;77;1539;-58
2023/04/09 05:48:28;;;;;;;;;;;20.70;46.50;;;;;;1525219;77;728;-58
2023/04/09 05:50:30;;;;;;;;;;;20.70;46.50;;;;;;1526900;77;790;-59
2023/04/09 05:52:31;;;;;;;;;;;20.70;46.70;;;;;;1531882;77;770;-59
2023/04/09 05:54:33;;;;;;;;;;;20.60;46.70;;;;;;1526764;77;1166;-62
2023/04/09 05:56:35;;;;;;;;;;;20.70;46.60;;;;;;1494350;79;1956;-58
2023/04/09 05:58:38;;;;;;;;;;;20.70;46.70;;;;;;1528172;77;712;-62
2023/04/09 06:00:40;;;;;;;;;;;20.70;46.50;;;;;;1526838;77;1582;-60
2023/04/09 06:02:42;;;;;;;;;;;20.80;46.80;;;;;;1524023;77;727;-61
2023/04/09 06:04:43;;;;;;;;;;;20.70;47.10;;;;;;1530668;77;1135;-61
2023/04/09 06:06:46;;;;;;;;;;;20.70;46.80;;;;;;1527709;77;801;-61
2023/04/09 06:08:47;;;;;;;;;;;20.70;46.70;;;;;;1533974;77;746;-61
2023/04/09 06:10:49;;;;;;;;;;;20.70;46.50;;;;;;1547766;75;779;-61
2023/04/09 06:12:51;;;;;;;;;;;20.70;46.40;;;;;;1526509;77;588;-61
2023/04/09 06:14:53;;;;;;;;;;;20.70;46.40;;;;;;1519481;77;1933;-60
2023/04/09 06:16:55;;;;;;;;;;;20.70;46.30;;;;;;1526677;77;751;-61
2023/04/09 06:18:57;;;;;;;;;;;20.60;46.20;;;;;;1524864;77;809;-61
2023/04/09 06:21:05;;;;;;;;;;;20.60;46.10;;;;;;1525516;77;777;-61
2023/04/09 06:23:07;;;;;;;;;;;20.60;46.10;;;;;;1493620;79;737;-61
2023/04/09 06:25:09;;;;;;;;;;;20.70;46.60;;;;;;1509660;77;1188;-61
2023/04/09 06:27:11;;;;;;;;;;;20.60;46.60;;;;;;1516631;77;676;-62
2023/04/09 06:29:13;;;;;;;;;;;20.70;46.90;;;;;;1574011;74;1573;-61
2023/04/09 06:31:15;;;;;;;;;;;20.70;46.90;;;;;;1562634;74;936;-62
2023/04/09 06:33:17;;;;;;;;;;;20.70;47.00;;;;;;1561936;74;1196;-60
2023/04/09 06:35:19;;;;;;;;;;;20.80;47.10;;;;;;1562187;76;2094;-60
2023/04/09 06:37:21;;;;;;;;;;;20.70;47.00;;;;;;1557725;75;641;-60
2023/04/09 06:39:23;;;;;;;;;;;20.70;46.50;;;;;;1557688;74;789;-66
2023/04/09 06:41:29;;;;;;;;;;;20.70;46.20;;;;;;1555482;74;1116;-64
2023/04/09 06:43:28;;;;;;;;;;;20.80;46.40;;;;;;1553928;75;1691;-59
2023/04/09 06:45:31;;;;;;;;;;;20.80;46.50;;;;;;1556669;75;1076;-64
2023/04/09 06:47:33;;;;;;;;;;;21.00;46.60;;;;;;1552359;75;1515;-65
2023/04/09 06:49:35;;;;;;;;;;;21.00;46.50;;;;;;1542939;75;1521;-64
2023/04/09 06:51:37;;;;;;;;;;;21.10;46.30;;;;;;1549218;75;1352;-64
2023/04/09 06:53:39;;;;;;;;;;;21.20;46.00;;;;;;1552239;75;1507;-64
2023/04/09 06:55:42;;;;;;;;;;;21.30;45.70;;;;;;1546155;75;1951;-64
2023/04/09 06:57:43;;;;;;;;;;;21.30;45.40;;;;;;1549428;74;1495;-65
2023/04/09 06:59:45;;;;;;;;;;;21.40;45.00;;;;;;1562565;74;1476;-64
2023/04/09 07:01:47;;;;;;;;;;;21.30;44.40;;;;;;1560489;74;1084;-64
2023/04/09 07:03:49;;;;;;;;;;;21.40;43.90;;;;;;1551781;75;1500;-65
2023/04/09 07:05:51;;;;;;;;;;;21.50;43.40;;;;;;1516865;76;1303;-65
2023/04/09 07:07:53;;;;;;;;;;;21.50;42.60;;;;;;1493281;78;1515;-64
2023/04/09 07:09:55;;;;;;;;;;;21.50;42.40;;;;;;1512177;78;1511;-64
2023/04/09 07:11:57;;;;;;;;;;;21.60;42.10;;;;;;1506027;77;1309;-64
2023/04/09 07:13:59;;;;;;;;;;;21.60;41.60;;;;;;1502159;77;1497;-64
2023/04/09 07:16:01;;;;;;;;;;;21.60;41.60;;;;;;1504309;77;1991;-65
2023/04/09 07:18:03;;;;;;;;;;;21.70;41.50;;;;;;1509332;77;1277;-64
2023/04/09 07:20:05;;;;;;;;;;;21.60;41.00;;;;;;1501317;77;1056;-63
2023/04/09 07:22:07;;;;;;;;;;;21.60;40.80;;;;;;1557199;74;1070;-63
2023/04/09 07:24:09;;;;;;;;;;;21.60;40.70;;;;;;1560836;74;1547;-64
2023/04/09 07:26:11;;;;;;;;;;;21.60;40.90;;;;;;1534503;76;1354;-63
2023/04/09 07:28:13;;;;;;;;;;;21.60;41.00;;;;;;1521465;76;1075;-63
2023/04/09 07:30:14;;;;;;;;;;;21.70;41.20;;;;;;1526702;77;1386;-64
2023/04/09 07:32:16;;;;;;;;;;;21.60;40.80;;;;;;1536626;76;1330;-64
2023/04/09 07:34:18;;;;;;;;;;;21.60;40.90;;;;;;1532780;76;1138;-64
2023/04/09 07:36:20;;;;;;;;;;;21.60;40.90;;;;;;1533613;77;1925;-64
2023/04/09 07:38:22;;;;;;;;;;;21.50;40.90;;;;;;1535130;77;1564;-63
2023/04/09 07:40:24;;;;;;;;;;;21.50;41.00;;;;;;1534874;76;680;-64
2023/04/09 07:42:27;;;;;;;;;;;21.50;41.00;;;;;;1520218;77;680;-64
2023/04/09 07:44:29;;;;;;;;;;;21.50;41.00;;;;;;1524705;77;1139;-64
2023/04/09 07:46:31;;;;;;;;;;;21.60;41.00;;;;;;1564843;75;636;-65
2023/04/09 07:48:32;;;;;;;;;;;21.50;41.00;;;;;;1555539;75;559;-64
2023/04/09 07:50:35;;;;;;;;;;;21.40;40.90;;;;;;1543977;75;622;-64
2023/04/09 07:52:37;;;;;;;;;;;21.50;41.00;;;;;;1550555;75;1593;-64
2023/04/09 07:54:39;;;;;;;;;;;21.50;41.10;;;;;;1559903;74;1122;-64
2023/04/09 07:56:41;;;;;;;;;;;21.40;41.00;;;;;;1555122;75;1912;-64
2023/04/09 07:58:43;;;;;;;;;;;21.50;41.30;;;;;;1531905;77;690;-64
2023/04/09 08:00:45;;;;;;;;;;;21.60;41.30;;;;;;1516406;77;697;-64
2023/04/09 08:02:47;;;;;;;;;;;21.60;41.30;;;;;;1567199;75;691;-63
2023/04/09 08:04:49;;;;;;;;;;;21.60;41.20;;;;;;1562895;75;1103;-63
2023/04/09 08:06:52;;;;;;;;;;;21.60;41.30;;;;;;1565208;75;1372;-64
2023/04/09 08:08:54;;;;;;;;;;;21.60;41.20;;;;;;1566866;75;772;-64
2023/04/09 08:10:56;;;;;;;;;;;21.60;41.50;;;;;;1560373;76;781;-64
2023/04/09 08:12:57;;;;;;;;;;;21.60;41.30;;;;;;1556238;75;715;-63
2023/04/09 08:15:02;;;;;;;;;;;21.60;41.40;;;;;;1557699;75;1099;-63
2023/04/09 08:17:03;;;;;;;;;;;21.60;41.40;;;;;;1561158;76;1924;-63
2023/04/09 08:19:05;;;;;;;;;;;21.50;41.40;;;;;;1555591;75;731;-63
2023/04/09 08:21:07;;;;;;;;;;;21.60;41.40;;;;;;1556803;76;1613;-63
2023/04/09 08:23:09;;;;;;;;;;;21.60;41.50;;;;;;1554953;74;799;-63
2023/04/09 08:25:11;;;;;;;;;;;21.70;41.60;;;;;;1555656;74;1164;-64
2023/04/09 08:27:13;;;;;;;;;;;21.60;41.50;;;;;;1526515;77;722;-63
2023/04/09 08:29:15;;;;;;;;;;;21.60;41.60;;;;;;1520122;77;718;-63
2023/04/09 08:31:17;;;;;;;;;;;21.70;41.80;;;;;;1518559;77;608;-63
2023/04/09 08:33:19;;;;;;;;;;;21.70;41.80;;;;;;1521249;77;1181;-63
2023/04/09 08:35:21;;;;;;;;;;;21.70;41.50;;;;;;1525070;77;1545;-64
2023/04/09 08:37:23;;;;;;;;;;;21.70;41.80;;;;;;1515177;77;1938;-64
2023/04/09 08:39:25;;;;;;;;;;;21.70;41.80;;;;;;1505651;77;736;-64
2023/04/09 08:41:29;;;;;;;;;;;21.70;41.50;;;;;;1565169;74;720;-65
2023/04/09 08:43:32;;;;;;;;;;;21.60;41.40;;;;;;1560998;75;1157;-66
2023/04/09 08:45:34;;;;;;;;;;;21.70;41.50;;;;;;1556933;75;699;-64
2023/04/09 08:47:36;;;;;;;;;;;21.70;41.40;;;;;;1551862;74;656;-65
2023/04/09 08:49:40;;;;;;;;;;;21.60;41.30;;;;;;1556046;76;1343;-66
2023/04/09 08:51:44;;;;;;;;;;;21.60;41.60;;;;;;1550937;76;614;-66
2023/04/09 08:53:49;;;;;;;;;;;21.70;41.70;;;;;;1565916;75;1100;-65
2023/04/09 08:55:50;;;;;;;;;;;21.70;41.50;;;;;;1561105;75;1961;-64
2023/04/09 08:57:52;;;;;;;;;;;21.70;41.40;;;;;;1558890;75;588;-65
2023/04/09 08:59:54;;;;;;;;;;;21.80;41.50;;;;;;1546227;74;852;-66
2023/04/09 09:02:10;;;;;;;;;;;21.70;41.30;;;;;;1565795;74;649;-66
2023/04/09 09:04:11;;;;;;;;;;;21.70;41.50;;;;;;1549785;74;1519;-66
2023/04/09 09:06:31;;;;;;;;;;;21.70;41.20;;;;;;1561585;75;912;-66
2023/04/09 09:08:33;;;;;;;;;;;21.70;40.60;;;;;;1560950;76;1685;-64
2023/04/09 09:10:42;;;;;;;;;;;21.70;40.20;;;;;;1567594;76;800;-64
2023/04/09 09:12:44;;;;;;;;;;;21.70;39.90;;;;;;1535776;77;786;-66
2023/04/09 09:14:45;;;;;;;;;;;21.80;39.60;;;;;;1526329;77;1128;-64
2023/04/09 09:16:58;;;;;;;;;;;21.70;39.10;;;;;;1516981;77;1963;-65
2023/04/09 09:19:02;;;;;;;;;;;21.60;36.80;;;;;;1507653;77;1389;-64
2023/04/09 09:21:13;;;;;;;;;;;21.60;38.40;;;;;;1513058;77;1792;-64
2023/04/09 09:23:15;;;;;;;;;;;21.60;37.60;;;;;;1513047;77;1310;-64
2023/04/09 09:25:16;;;;;;;;;;;21.50;36.20;;;;;;1512669;77;1491;-64
2023/04/09 09:27:23;;;;;;;;;;;21.50;36.00;;;;;;1512876;77;1077;-64
2023/04/09 09:29:25;;;;;;;;;;;21.20;35.00;;;;;;1512306;77;1328;-64
2023/04/09 09:31:27;;;;;;;;;;;21.00;36.70;;;;;;1500645;77;1439;-64
2023/04/09 09:33:28;;;;;;;;;;;21.10;37.30;;;;;;1507857;77;1553;-64
2023/04/09 09:35:30;;;;;;;;;;;21.20;33.60;;;;;;1495728;79;1465;-64
2023/04/09 09:37:32;;;;;;;;;;;21.00;35.90;;;;;;1558990;75;1938;-64
2023/04/09 09:39:43;;;;;;;;;;;20.90;34.30;;;;;;1556625;75;1492;-64
2023/04/09 09:41:45;;;;;;;;;;;20.70;34.00;;;;;;1560124;75;1381;-64
2023/04/09 09:43:47;;;;;;;;;;;20.50;35.90;;;;;;1547783;74;1277;-63
2023/04/09 09:45:49;;;;;;;;;;;20.60;36.20;;;;;;1551231;74;1509;-64
2023/04/09 09:47:52;;;;;;;;;;;20.60;35.90;;;;;;1513243;77;1502;-63
2023/04/09 09:49:54;;;;;;;;;;;20.50;33.20;;;;;;1492637;78;1472;-63
2023/04/09 09:51:56;;;;;;;;;;;20.30;35.70;;;;;;1491884;78;1458;-63
2023/04/09 09:53:58;;;;;;;;;;;20.30;36.00;;;;;;1507335;77;1514;-63
2023/04/09 09:56:01;;;;;;;;;;;20.50;35.40;;;;;;1502656;77;1442;-65
2023/04/09 09:58:03;;;;;;;;;;;20.40;34.70;;;;;;1516804;77;1921;-63
2023/04/09 10:00:06;;;;;;;;;;;20.30;34.30;;;;;;1513656;77;1489;-64
2023/04/09 10:02:10;;;;;;;;;;;20.30;34.20;;;;;;1511270;77;1456;-66
2023/04/09 10:04:14;;;;;;;;;;;20.20;35.20;;;;;;1501862;77;1520;-66
2023/04/09 10:06:16;;;;;;;;;;;20.30;34.20;;;;;;1509378;77;1189;-64
2023/04/09 10:08:18;;;;;;;;;;;20.10;34.90;;;;;;1507876;77;1684;-63
2023/04/09 10:10:20;;;;;;;;;;;19.90;32.60;;;;;;1509839;77;1471;-65
2023/04/09 10:12:25;;;;;;;;;;;19.90;33.40;;;;;;1508445;78;1527;-65
2023/04/09 10:14:28;;;;;;;;;;;19.80;33.70;;;;;;1492404;77;1670;-65
2023/04/09 10:16:30;;;;;;;;;;;19.80;35.10;;;;;;1497424;78;1945;-61
2023/04/09 10:18:32;;;;;;;;;;;19.80;34.70;;;;;;1500449;77;1482;-62
2023/04/09 10:20:36;;;;;;;;;;;19.70;33.70;;;;;;1500975;77;1504;-65
2023/04/09 10:22:38;;;;;;;;;;;19.60;32.50;;;;;;1517743;77;1530;-65
2023/04/09 10:24:40;;;;;;;;;;;19.60;34.00;;;;;;1508463;77;1375;-65
2023/04/09 10:26:43;;;;;;;;;;;19.70;34.20;;;;;;1507848;77;1496;-65
2023/04/09 10:28:45;;;;;;;;;;;19.70;32.70;;;;;;1511381;77;1375;-65
2023/04/09 10:30:47;;;;;;;;;;;19.60;34.40;;;;;;1499160;77;1492;-65
2023/04/09 10:32:49;;;;;;;;;;;19.60;33.90;;;;;;1510589;78;1544;-65
2023/04/09 10:34:51;;;;;;;;;;;19.60;34.30;;;;;;1512248;77;1493;-66
2023/04/09 10:36:54;;;;;;;;;;;19.60;32.50;;;;;;1508685;77;1941;-67
2023/04/09 10:38:56;;;;;;;;;;;19.60;33.10;;;;;;1486521;77;1062;-62
2023/04/09 10:40:58;;;;;;;;;;;19.50;33.40;;;;;;1507117;77;1553;-62
2023/04/09 10:43:00;;;;;;;;;;;19.50;34.10;;;;;;1492949;77;1535;-62
2023/04/09 10:45:08;;;;;;;;;;;19.60;34.30;;;;;;1495637;77;1159;-61
2023/04/09 10:47:11;;;;;;;;;;;19.50;33.50;;;;;;1501505;77;1530;-62
2023/04/09 10:49:14;;;;;;;;;;;19.50;34.20;;;;;;1492908;77;1419;-61
2023/04/09 10:51:19;;;;;;;;;;;19.60;33.60;;;;;;1493202;77;1415;-63
2023/04/09 10:53:22;;;;;;;;;;;19.60;34.30;;;;;;1555102;74;1399;-62
2023/04/09 10:55:31;;;;;;;;;;;19.70;34.90;;;;;;1546898;74;1401;-61
2023/04/09 10:57:33;;;;;;;;;;;19.90;34.50;;;;;;1557537;74;1967;-63
2023/04/09 10:59:37;;;;;;;;;;;19.80;34.20;;;;;;1549077;74;1359;-60
2023/04/09 11:01:39;;;;;;;;;;;19.80;35.00;;;;;;1558801;74;1236;-60
2023/04/09 11:03:42;;;;;;;;;;;19.90;33.80;;;;;;1519152;76;1486;-60
2023/04/09 11:05:44;;;;;;;;;;;19.90;34.60;;;;;;1508444;77;1330;-61
2023/04/09 11:07:51;;;;;;;;;;;19.60;33.90;;;;;;1501513;77;1307;-60
2023/04/09 11:09:53;;;;;;;;;;;19.50;32.60;;;;;;1504409;78;1331;-60
2023/04/09 11:11:56;;;;;;;;;;;19.40;33.10;;;;;;1502005;79;1315;-60
2023/04/09 11:14:03;;;;;;;;;;;19.40;33.00;;;;;;1503388;77;1240;-60
2023/04/09 11:16:05;;;;;;;;;;;19.30;33.60;;;;;;1560030;74;1608;-59
2023/04/09 11:18:08;;;;;;;;;;;19.30;34.60;;;;;;1554282;74;1932;-59
2023/04/09 11:20:10;;;;;;;;;;;19.60;34.20;;;;;;1557972;74;1378;-60
2023/04/09 11:22:12;;;;;;;;;;;19.30;34.00;;;;;;1530425;76;1075;-60
2023/04/09 11:24:14;;;;;;;;;;;19.20;32.60;;;;;;1512081;77;1192;-61
2023/04/09 11:26:16;;;;;;;;;;;19.20;34.00;;;;;;1518951;77;1495;-60
2023/04/09 11:28:18;;;;;;;;;;;19.30;34.00;;;;;;1510986;77;1161;-60
2023/04/09 11:30:20;;;;;;;;;;;19.40;33.90;;;;;;1511462;77;1538;-59
2023/04/09 11:32:22;;;;;;;;;;;19.30;33.80;;;;;;1507103;77;1108;-60
2023/04/09 11:34:25;;;;;;;;;;;19.30;34.60;;;;;;1523609;76;1165;-59
2023/04/09 11:36:27;;;;;;;;;;;19.40;34.10;;;;;;1507278;77;1948;-60
2023/04/09 11:38:29;;;;;;;;;;;19.30;33.70;;;;;;1512768;77;1931;-59
2023/04/09 11:40:31;;;;;;;;;;;19.30;34.30;;;;;;1474392;78;1373;-59
2023/04/09 11:42:33;;;;;;;;;;;19.40;35.50;;;;;;1515381;77;1272;-60
2023/04/09 11:44:35;;;;;;;;;;;19.40;33.80;;;;;;1512348;77;1357;-59
2023/04/09 11:46:38;;;;;;;;;;;19.30;34.80;;;;;;1505853;78;1345;-59
2023/04/09 11:48:40;;;;;;;;;;;19.20;34.70;;;;;;1529594;76;1496;-60
2023/04/09 11:50:41;;;;;;;;;;;19.20;35.10;;;;;;1509395;77;1172;-60
2023/04/09 11:52:44;;;;;;;;;;;19.10;35.30;;;;;;1515268;77;1586;-59
2023/04/09 11:54:49;;;;;;;;;;;19.00;33.30;;;;;;1516797;77;1172;-60
2023/04/09 11:56:54;;;;;;;;;;;18.80;35.00;;;;;;1510584;77;1933;-58
2023/04/09 11:58:54;;;;;;;;;;;18.80;33.80;;;;;;1513288;77;1703;-60
2023/04/09 12:00:59;;;;;;;;;;;18.70;34.90;;;;;;1516778;77;1508;-59
2023/04/09 12:03:02;;;;;;;;;;;18.70;35.00;;;;;;1560057;74;1375;-60
2023/04/09 12:05:04;;;;;;;;;;;18.70;34.70;;;;;;1553156;75;1368;-60
2023/04/09 12:07:08;;;;;;;;;;;18.80;34.60;;;;;;1558699;74;1109;-60
2023/04/09 12:09:12;;;;;;;;;;;18.70;34.10;;;;;;1568238;74;1479;-59